createdAt,value
2023-02-27T00:01:40.679Z,75.08
2023-02-27T00:04:07.167Z,76.05
2023-02-27T00:06:33.621Z,76.58
2023-02-27T00:09:00.279Z,76.65
2023-02-27T00:11:27.094Z,76.62
2023-02-27T00:13:53.698Z,77.41
2023-02-27T00:16:20.143Z,76.62
2023-02-27T00:18:46.635Z,76.59
2023-02-27T00:21:13.000Z,75.72
2023-02-27T00:23:39.374Z,76.25
2023-02-27T00:26:05.758Z,76.15
2023-02-27T00:28:32.166Z,76.14
2023-02-27T00:30:58.662Z,75.81
2023-02-27T00:33:25.156Z,77.07
2023-02-27T00:35:56.074Z,77.12
2023-02-27T00:38:22.592Z,77.82
2023-02-27T00:40:49.005Z,77.46
2023-02-27T00:43:15.409Z,77.47
2023-02-27T00:45:41.744Z,77.49
2023-02-27T00:48:08.132Z,77.96
2023-02-27T00:50:34.512Z,77.48
2023-02-27T00:53:00.885Z,77.92
2023-02-27T00:55:27.533Z,77.48
2023-02-27T00:57:54.007Z,78.11
2023-02-27T01:00:20.543Z,78.52
2023-02-27T01:02:46.944Z,79.24
2023-02-27T01:05:14.450Z,79.52
2023-02-27T01:07:40.972Z,79.43
2023-02-27T01:10:09.177Z,79.31
2023-02-27T01:12:35.666Z,80.13
2023-02-27T01:15:02.378Z,80.07
2023-02-27T01:17:28.765Z,80.31
2023-02-27T01:19:55.172Z,80.73
2023-02-27T01:22:21.553Z,80.67
2023-02-27T01:24:47.988Z,80.69
2023-02-27T01:27:14.334Z,81.17
2023-02-27T01:29:41.075Z,80.52
2023-02-27T01:32:07.716Z,80.44
2023-02-27T01:34:34.437Z,81.04
2023-02-27T01:37:00.860Z,81.28
2023-02-27T01:39:27.649Z,81.19
2023-02-27T01:41:54.011Z,81.24
2023-02-27T01:44:20.391Z,81.13
2023-02-27T01:46:46.838Z,82.09
2023-02-27T01:49:24.030Z,81.77
2023-02-27T01:51:56.608Z,82.18
2023-02-27T01:54:26.066Z,82.21
2023-02-27T01:56:52.524Z,81.95
2023-02-27T01:59:20.129Z,81.54
2023-02-27T02:01:46.652Z,81.72
2023-02-27T02:04:33.769Z,82.21
2023-02-27T02:07:02.849Z,82.70
2023-02-27T02:09:30.400Z,82.66
2023-02-27T02:11:58.810Z,82.19
2023-02-27T02:14:25.307Z,82.53
2023-02-27T02:17:11.653Z,82.76
2023-02-27T02:19:58.675Z,82.39
2023-02-27T02:22:53.464Z,82.33
2023-02-27T02:25:49.020Z,82.25
2023-02-27T02:28:32.827Z,82.82
2023-02-27T02:31:09.317Z,83.63
2023-02-27T02:33:56.629Z,83.63
2023-02-27T02:36:37.254Z,83.06
2023-02-27T02:39:25.357Z,83.75
2023-02-27T02:42:04.592Z,83.53
2023-02-27T02:44:57.829Z,84.26
2023-02-27T02:47:53.279Z,83.16
2023-02-27T02:50:28.867Z,83.39
2023-02-27T02:53:21.666Z,84.10
2023-02-27T02:55:57.888Z,83.95
2023-02-27T02:58:40.394Z,84.61
2023-02-27T03:01:14.798Z,84.19
2023-02-27T03:03:47.707Z,84.04
2023-02-27T03:06:20.398Z,83.94
2023-02-27T03:08:53.879Z,84.07
2023-02-27T03:11:24.252Z,84.54
2023-02-27T03:13:56.608Z,84.85
2023-02-27T03:16:40.966Z,85.03
2023-02-27T03:19:18.854Z,84.17
2023-02-27T03:21:57.503Z,84.55
2023-02-27T03:24:32.475Z,84.38
2023-02-27T03:27:02.907Z,84.85
2023-02-27T03:29:38.679Z,85.34
2023-02-27T03:32:17.657Z,85.37
2023-02-27T03:34:44.849Z,85.13
2023-02-27T03:37:46.089Z,84.44
2023-02-27T03:40:26.220Z,83.95
2023-02-27T03:43:18.382Z,84.27
2023-02-27T03:46:01.700Z,83.76
2023-02-27T03:48:28.887Z,83.93
2023-02-27T03:50:55.843Z,84.12
2023-02-27T03:53:54.382Z,83.99
2023-02-27T03:56:27.259Z,84.37
2023-02-27T03:58:53.874Z,85.23
2023-02-27T04:01:20.855Z,85.11
2023-02-27T04:04:00.497Z,84.87
2023-02-27T04:06:45.417Z,84.40
2023-02-27T04:09:59.567Z,84.78
2023-02-27T04:12:31.679Z,84.97
2023-02-27T04:15:29.927Z,85.07
2023-02-27T04:18:31.932Z,84.63
2023-02-27T04:21:06.436Z,85.02
2023-02-27T04:23:39.456Z,84.41
2023-02-27T04:26:25.504Z,85.16
2023-02-27T04:29:05.959Z,84.62
2023-02-27T04:31:45.979Z,84.76
2023-02-27T04:34:50.519Z,84.41
2023-02-27T04:37:23.986Z,85.05
2023-02-27T04:39:56.027Z,84.97
2023-02-27T04:42:27.968Z,84.88
2023-02-27T04:44:57.884Z,85.50
2023-02-27T04:47:27.125Z,84.89
2023-02-27T04:49:59.347Z,85.16
2023-02-27T04:52:34.418Z,86.25
2023-02-27T04:55:17.722Z,85.81
2023-02-27T04:57:53.361Z,86.17
2023-02-27T05:00:24.043Z,85.80
2023-02-27T05:02:57.021Z,85.57
2023-02-27T05:05:29.982Z,85.09
2023-02-27T05:08:04.524Z,84.44
2023-02-27T05:10:43.191Z,85.00
2023-02-27T05:13:15.114Z,85.21
2023-02-27T05:15:49.363Z,84.85
2023-02-27T05:18:21.215Z,85.18
2023-02-27T05:20:54.289Z,85.01
2023-02-27T05:23:43.182Z,84.89
2023-02-27T05:26:47.274Z,84.97
2023-02-27T05:29:22.669Z,85.65
2023-02-27T05:31:56.823Z,86.38
2023-02-27T05:34:27.741Z,85.53
2023-02-27T05:37:01.766Z,85.35
2023-02-27T05:39:30.296Z,84.96
2023-02-27T05:42:01.938Z,85.06
2023-02-27T05:44:34.673Z,84.84
2023-02-27T05:47:07.923Z,85.18
2023-02-27T05:49:40.935Z,84.84
2023-02-27T05:52:11.949Z,85.33
2023-02-27T05:55:01.845Z,84.66
2023-02-27T05:57:39.012Z,85.30
2023-02-27T06:00:21.147Z,85.08
2023-02-27T06:02:47.662Z,85.12
2023-02-27T06:05:15.464Z,86.72
2023-02-27T06:07:41.942Z,86.86
2023-02-27T06:10:12.238Z,86.57
2023-02-27T06:12:38.644Z,86.37
2023-02-27T06:15:05.456Z,85.83
2023-02-27T06:17:31.836Z,86.00
2023-02-27T06:19:58.211Z,85.79
2023-02-27T06:22:24.581Z,85.23
2023-02-27T06:24:51.008Z,85.43
2023-02-27T06:27:17.364Z,85.68
2023-02-27T06:29:43.718Z,85.86
2023-02-27T06:32:10.198Z,86.37
2023-02-27T06:34:36.704Z,85.41
2023-02-27T06:37:04.344Z,85.96
2023-02-27T06:39:30.904Z,85.13
2023-02-27T06:41:57.278Z,85.84
2023-02-27T06:44:23.664Z,86.40
2023-02-27T06:46:50.077Z,85.84
2023-02-27T06:49:16.735Z,85.49
2023-02-27T06:51:44.998Z,85.51
2023-02-27T06:54:11.860Z,85.53
2023-02-27T06:56:38.245Z,85.25
2023-02-27T06:59:04.924Z,85.67
2023-02-27T07:01:31.567Z,85.70
2023-02-27T07:03:58.023Z,85.31
2023-02-27T07:07:32.753Z,86.51
2023-02-27T07:09:11.217Z,86.19
2023-02-27T07:11:37.588Z,86.59
2023-02-27T07:14:04.151Z,86.35
2023-02-27T07:16:30.584Z,86.61
2023-02-27T07:18:56.996Z,86.46
2023-02-27T07:21:23.538Z,86.37
2023-02-27T07:23:49.991Z,86.61
2023-02-27T07:26:16.403Z,86.65
2023-02-27T07:28:42.768Z,86.29
2023-02-27T07:31:09.174Z,86.00
2023-02-27T07:33:35.609Z,85.75
2023-02-27T07:36:02.304Z,85.76
2023-02-27T07:38:28.908Z,86.13
2023-02-27T07:40:55.333Z,85.88
2023-02-27T07:43:21.708Z,85.66
2023-02-27T07:45:50.640Z,86.24
2023-02-27T07:48:17.633Z,85.86
2023-02-27T07:50:44.035Z,85.80
2023-02-27T07:53:12.702Z,85.80
2023-02-27T07:55:39.330Z,84.79
2023-02-27T07:58:05.722Z,83.62
2023-02-27T08:00:32.099Z,81.86
2023-02-27T08:02:58.600Z,80.42
2023-02-27T08:05:24.998Z,78.92
2023-02-27T08:07:51.398Z,77.81
2023-02-27T08:10:17.838Z,76.84
2023-02-27T08:12:44.838Z,74.71
2023-02-27T08:15:11.689Z,74.03
2023-02-27T08:17:38.081Z,72.68
2023-02-27T08:20:05.096Z,71.55
2023-02-27T08:22:32.489Z,70.74
2023-02-27T08:24:58.933Z,69.82
2023-02-27T08:27:25.356Z,69.47
2023-02-27T08:29:51.746Z,68.57
2023-02-27T08:32:18.290Z,66.38
2023-02-27T08:34:44.696Z,66.53
2023-02-27T08:37:11.139Z,65.51
2023-02-27T08:39:37.480Z,65.67
2023-02-27T08:42:03.974Z,63.62
2023-02-27T08:44:30.321Z,63.18
2023-02-27T08:46:56.735Z,62.03
2023-02-27T08:49:25.122Z,60.75
2023-02-27T08:51:52.622Z,60.59
2023-02-27T08:54:19.196Z,59.72
2023-02-27T08:56:45.654Z,59.04
2023-02-27T08:59:12.043Z,58.23
2023-02-27T09:01:38.454Z,58.46
2023-02-27T09:04:05.713Z,58.38
2023-02-27T09:06:34.694Z,55.54
2023-02-27T09:09:01.237Z,55.07
2023-02-27T09:11:28.438Z,55.04
2023-02-27T09:13:56.248Z,53.63
2023-02-27T09:16:23.369Z,53.08
2023-02-27T09:18:50.421Z,52.21
2023-02-27T09:21:17.192Z,51.63
2023-02-27T09:23:43.637Z,51.20
2023-02-27T09:26:10.208Z,50.93
2023-02-27T09:28:39.947Z,51.10
2023-02-27T09:31:07.875Z,50.39
2023-02-27T09:33:37.116Z,50.79
2023-02-27T09:36:05.639Z,52.10
2023-02-27T09:38:34.474Z,50.60
2023-02-27T09:41:01.405Z,50.12
2023-02-27T09:43:45.841Z,49.94
2023-02-27T09:46:19.738Z,49.58
2023-02-27T09:48:48.488Z,48.88
2023-02-27T09:51:16.769Z,48.46
2023-02-27T09:53:49.795Z,48.62
2023-02-27T09:56:26.549Z,47.95
2023-02-27T09:59:13.714Z,47.94
2023-02-27T10:01:43.499Z,46.01
2023-02-27T10:04:51.644Z,47.77
2023-02-27T10:07:52.393Z,44.78
2023-02-27T10:10:36.026Z,43.95
2023-02-27T10:13:25.361Z,44.75
2023-02-27T10:15:55.419Z,43.75
2023-02-27T10:18:40.005Z,42.50
2023-02-27T10:21:10.907Z,42.45
2023-02-27T10:23:46.444Z,41.66
2023-02-27T10:26:31.100Z,40.84
2023-02-27T10:29:02.540Z,40.51
2023-02-27T10:31:34.712Z,39.86
2023-02-27T10:34:02.269Z,39.31
2023-02-27T10:36:33.988Z,38.54
2023-02-27T10:39:08.860Z,38.39
2023-02-27T10:41:37.712Z,38.48
2023-02-27T10:44:04.993Z,37.83
2023-02-27T10:46:35.156Z,36.70
2023-02-27T10:49:05.509Z,37.42
2023-02-27T10:51:36.241Z,37.18
2023-02-27T10:54:16.245Z,36.71
2023-02-27T10:56:45.847Z,37.49
2023-02-27T10:59:20.178Z,37.99
2023-02-27T11:01:51.583Z,36.25
2023-02-27T11:04:53.639Z,37.42
2023-02-27T11:07:32.092Z,36.06
2023-02-27T11:10:15.545Z,36.78
2023-02-27T11:12:56.594Z,37.45
2023-02-27T11:15:29.755Z,38.56
2023-02-27T11:18:22.059Z,37.61
2023-02-27T11:20:50.717Z,39.29
2023-02-27T11:23:25.100Z,37.66
2023-02-27T11:26:08.517Z,36.13
2023-02-27T11:28:34.921Z,34.56
2023-02-27T11:31:03.501Z,36.76
2023-02-27T11:33:35.920Z,35.20
2023-02-27T11:36:03.795Z,34.27
2023-02-27T11:38:32.202Z,33.10
2023-02-27T11:41:02.065Z,32.97
2023-02-27T11:43:32.817Z,33.17
2023-02-27T11:46:10.199Z,32.63
2023-02-27T11:48:50.554Z,32.27
2023-02-27T11:51:22.840Z,31.37
2023-02-27T11:54:01.168Z,31.88
2023-02-27T11:56:36.163Z,32.17
2023-02-27T11:59:22.996Z,31.14
2023-02-27T12:01:52.333Z,31.96
2023-02-27T12:04:25.663Z,30.84
2023-02-27T12:06:58.841Z,32.11
2023-02-27T12:09:41.852Z,32.11
2023-02-27T12:12:21.041Z,31.34
2023-02-27T12:14:57.275Z,31.64
2023-02-27T12:17:39.587Z,31.74
2023-02-27T12:20:29.443Z,31.37
2023-02-27T12:22:56.283Z,31.75
2023-02-27T12:25:29.754Z,33.80
2023-02-27T12:28:15.107Z,31.93
2023-02-27T12:31:01.770Z,32.72
2023-02-27T12:33:55.209Z,32.44
2023-02-27T12:36:21.662Z,31.68
2023-02-27T12:38:48.050Z,32.19
2023-02-27T12:41:14.382Z,33.13
2023-02-27T12:44:25.698Z,33.12
2023-02-27T12:46:57.916Z,32.53
2023-02-27T12:49:28.629Z,33.50
2023-02-27T12:52:12.678Z,36.42
2023-02-27T12:54:51.261Z,32.47
2023-02-27T12:57:30.107Z,32.17
2023-02-27T13:00:02.234Z,32.09
2023-02-27T13:02:52.049Z,32.10
2023-02-27T13:05:36.879Z,31.92
2023-02-27T13:08:19.133Z,32.74
2023-02-27T13:10:50.893Z,30.85
2023-02-27T13:13:28.183Z,30.99
2023-02-27T13:16:00.572Z,30.80
2023-02-27T13:18:49.548Z,31.02
2023-02-27T13:21:28.797Z,30.22
2023-02-27T13:24:15.614Z,31.03
2023-02-27T13:26:53.580Z,30.23
2023-02-27T13:29:22.885Z,30.99
2023-02-27T13:32:01.357Z,30.12
2023-02-27T13:34:42.483Z,30.66
2023-02-27T13:37:09.557Z,30.83
2023-02-27T13:39:47.077Z,31.87
2023-02-27T13:42:25.935Z,32.68
2023-02-27T13:44:54.573Z,32.13
2023-02-27T13:47:30.054Z,31.59
2023-02-27T13:50:23.694Z,31.87
2023-02-27T13:52:50.698Z,31.88
2023-02-27T13:55:31.230Z,35.89
2023-02-27T13:58:00.577Z,36.33
2023-02-27T14:00:30.024Z,36.32
2023-02-27T14:03:01.826Z,35.95
2023-02-27T14:05:38.792Z,35.41
2023-02-27T14:08:08.273Z,36.60
2023-02-27T14:10:37.209Z,37.22
2023-02-27T14:13:04.351Z,35.90
2023-02-27T14:15:30.665Z,35.51
2023-02-27T14:18:11.471Z,36.07
2023-02-27T14:20:42.203Z,35.63
2023-02-27T14:23:26.915Z,35.58
2023-02-27T14:25:56.713Z,37.25
2023-02-27T14:28:25.945Z,36.99
2023-02-27T14:31:01.103Z,36.90
2023-02-27T14:33:39.959Z,35.88
2023-02-27T14:36:15.813Z,36.66
2023-02-27T14:38:42.406Z,37.94
2023-02-27T14:41:33.571Z,36.96
2023-02-27T14:44:00.366Z,39.83
2023-02-27T14:46:30.659Z,41.45
2023-02-27T14:49:00.108Z,42.75
2023-02-27T14:51:29.791Z,43.11
2023-02-27T14:54:17.525Z,45.01
2023-02-27T14:57:15.993Z,44.41
2023-02-27T14:59:45.522Z,43.50
2023-02-27T15:02:35.399Z,43.48
2023-02-27T15:05:01.783Z,43.19
2023-02-27T15:07:33.953Z,42.65
2023-02-27T15:10:04.611Z,41.42
2023-02-27T15:12:36.848Z,41.58
2023-02-27T15:15:05.967Z,41.07
2023-02-27T15:17:41.438Z,42.06
2023-02-27T15:20:35.261Z,41.83
2023-02-27T15:23:29.405Z,42.75
2023-02-27T15:25:59.892Z,44.09
2023-02-27T15:28:38.681Z,44.74
2023-02-27T15:31:17.641Z,44.86
2023-02-27T15:33:44.084Z,43.79
2023-02-27T15:36:22.596Z,43.93
2023-02-27T15:39:05.903Z,44.01
2023-02-27T15:41:32.879Z,42.69
2023-02-27T15:43:59.357Z,43.22
2023-02-27T15:46:26.156Z,43.62
2023-02-27T15:48:54.771Z,43.38
2023-02-27T15:51:21.225Z,43.80
2023-02-27T15:53:54.527Z,44.08
2023-02-27T15:56:41.892Z,43.98
2023-02-27T15:59:15.219Z,44.94
2023-02-27T16:01:41.834Z,45.08
2023-02-27T16:04:20.574Z,44.95
2023-02-27T16:06:52.185Z,45.87
2023-02-27T16:09:21.140Z,46.19
2023-02-27T16:11:47.579Z,46.55
2023-02-27T16:14:43.118Z,46.21
2023-02-27T16:17:52.188Z,47.11
2023-02-27T16:20:31.603Z,46.92
2023-02-27T16:23:14.560Z,48.00
2023-02-27T16:25:42.825Z,47.79
2023-02-27T16:28:14.611Z,46.81
2023-02-27T16:30:42.420Z,47.25
2023-02-27T16:33:19.255Z,47.89
2023-02-27T16:35:45.790Z,47.78
2023-02-27T16:38:12.202Z,49.08
2023-02-27T16:40:38.639Z,49.16
2023-02-27T16:43:05.131Z,48.46
2023-02-27T16:45:31.983Z,48.82
2023-02-27T16:48:00.375Z,48.82
2023-02-27T16:50:41.029Z,48.73
2023-02-27T16:53:08.069Z,48.86
2023-02-27T16:55:39.056Z,49.47
2023-02-27T16:58:06.365Z,50.03
2023-02-27T17:00:34.053Z,49.68
2023-02-27T17:03:01.091Z,49.87
2023-02-27T17:05:27.482Z,50.29
2023-02-27T17:07:53.868Z,50.38
2023-02-27T17:10:24.493Z,52.40
2023-02-27T17:12:51.456Z,51.53
2023-02-27T17:15:18.190Z,52.21
2023-02-27T17:17:45.112Z,52.26
2023-02-27T17:20:13.166Z,52.71
2023-02-27T17:22:43.009Z,52.23
2023-02-27T17:25:10.954Z,53.14
2023-02-27T17:27:37.606Z,53.62
2023-02-27T17:30:05.964Z,53.79
2023-02-27T17:32:34.451Z,53.40
2023-02-27T17:35:01.024Z,53.65
2023-02-27T17:37:27.601Z,54.07
2023-02-27T17:39:54.778Z,54.82
2023-02-27T17:42:22.763Z,55.35
2023-02-27T17:44:49.213Z,54.82
2023-02-27T17:47:15.663Z,55.28
2023-02-27T17:49:42.573Z,56.17
2023-02-27T17:52:09.203Z,57.32
2023-02-27T17:54:36.056Z,56.42
2023-02-27T17:57:04.665Z,57.94
2023-02-27T17:59:31.532Z,58.62
2023-02-27T18:01:57.948Z,59.24
2023-02-27T18:04:24.384Z,60.18
2023-02-27T18:06:51.013Z,60.37
2023-02-27T18:09:17.976Z,61.61
2023-02-27T18:11:44.411Z,62.95
2023-02-27T18:14:10.906Z,63.30
2023-02-27T18:16:37.494Z,64.08
2023-02-27T18:19:05.617Z,64.25
2023-02-27T18:21:32.874Z,64.44
2023-02-27T18:23:59.544Z,64.73
2023-02-27T18:26:31.116Z,65.12
2023-02-27T18:29:00.564Z,64.89
2023-02-27T18:31:33.732Z,65.46
2023-02-27T18:34:01.068Z,64.96
2023-02-27T18:36:29.164Z,65.11
2023-02-27T18:38:55.835Z,65.61
2023-02-27T18:41:22.296Z,65.87
2023-02-27T18:43:48.959Z,66.45
2023-02-27T18:46:15.671Z,66.96
2023-02-27T18:48:44.484Z,67.03
2023-02-27T18:51:14.476Z,67.54
2023-02-27T18:53:44.225Z,67.18
2023-02-27T18:56:11.754Z,68.24
2023-02-27T18:58:38.442Z,68.05
2023-02-27T19:01:05.474Z,68.84
2023-02-27T19:03:32.266Z,68.96
2023-02-27T19:05:58.855Z,69.46
2023-02-27T19:08:28.907Z,69.43
2023-02-27T19:10:58.785Z,69.78
2023-02-27T19:13:26.011Z,70.49
2023-02-27T19:15:53.217Z,70.38
2023-02-27T19:18:20.167Z,70.46
2023-02-27T19:20:46.550Z,70.43
2023-02-27T19:23:12.959Z,71.04
2023-02-27T19:25:39.409Z,71.80
2023-02-27T19:28:06.451Z,71.72
2023-02-27T19:30:33.014Z,71.78
2023-02-27T19:32:59.569Z,71.88
2023-02-27T19:35:26.575Z,71.78
2023-02-27T19:37:58.248Z,71.69
2023-02-27T19:40:26.250Z,71.73
2023-02-27T19:42:52.986Z,71.86
2023-02-27T19:45:20.573Z,71.48
2023-02-27T19:47:47.169Z,71.75
2023-02-27T19:50:14.017Z,70.98
2023-02-27T19:52:40.704Z,71.24
2023-02-27T19:55:08.196Z,70.93
2023-02-27T19:57:35.704Z,70.26
2023-02-27T20:00:05.729Z,70.95
2023-02-27T20:02:32.614Z,70.79
2023-02-27T20:04:59.523Z,71.18
2023-02-27T20:07:29.068Z,70.79
2023-02-27T20:09:56.447Z,70.51
2023-02-27T20:12:23.334Z,69.49
2023-02-27T20:14:50.351Z,69.84
2023-02-27T20:17:17.156Z,69.46
2023-02-27T20:19:43.973Z,68.62
2023-02-27T20:22:13.450Z,69.47
2023-02-27T20:24:40.235Z,69.58
2023-02-27T20:27:07.470Z,70.14
2023-02-27T20:29:34.126Z,71.52
2023-02-27T20:32:01.209Z,71.12
2023-02-27T20:34:28.532Z,71.69
2023-02-27T20:36:55.860Z,71.27
2023-02-27T20:39:22.562Z,71.58
2023-02-27T20:41:49.379Z,71.82
2023-02-27T20:44:15.862Z,71.87
2023-02-27T20:46:43.579Z,72.56
2023-02-27T20:49:14.357Z,70.95
2023-02-27T20:51:40.835Z,71.99
2023-02-27T20:54:10.961Z,70.48
2023-02-27T20:56:41.142Z,71.08
2023-02-27T20:59:11.913Z,71.67
2023-02-27T21:01:38.709Z,72.59
2023-02-27T21:04:05.629Z,72.67
2023-02-27T21:06:32.443Z,72.57
2023-02-27T21:09:04.468Z,73.49
2023-02-27T21:11:32.154Z,74.29
2023-02-27T21:14:04.121Z,74.98
2023-02-27T21:16:30.564Z,74.77
2023-02-27T21:18:57.177Z,74.92
2023-02-27T21:21:26.844Z,75.47
2023-02-27T21:23:54.177Z,75.73
2023-02-27T21:26:26.567Z,76.39
2023-02-27T21:28:58.284Z,76.06
2023-02-27T21:31:27.887Z,76.45
2023-02-27T21:33:54.916Z,76.07
2023-02-27T21:36:30.719Z,76.59
2023-02-27T21:39:02.882Z,76.11
2023-02-27T21:41:30.012Z,76.81
2023-02-27T21:44:01.194Z,76.62
2023-02-27T21:46:28.671Z,76.85
2023-02-27T21:48:55.080Z,78.10
2023-02-27T21:51:36.720Z,77.72
2023-02-27T21:54:05.568Z,77.81
2023-02-27T21:56:32.081Z,77.76
2023-02-27T21:59:02.101Z,78.69
2023-02-27T22:01:29.555Z,78.10
2023-02-27T22:03:57.065Z,78.34
2023-02-27T22:06:25.324Z,78.16
2023-02-27T22:08:56.035Z,78.29
2023-02-27T22:11:23.878Z,78.94
2023-02-27T22:13:50.363Z,78.04
2023-02-27T22:16:17.395Z,78.08
2023-02-27T22:18:45.042Z,78.97
2023-02-27T22:21:16.029Z,79.07
2023-02-27T22:23:43.458Z,78.44
2023-02-27T22:26:12.984Z,79.12
2023-02-27T22:28:41.266Z,79.81
2023-02-27T22:31:10.281Z,79.23
2023-02-27T22:33:37.422Z,79.14
2023-02-27T22:36:08.750Z,79.05
2023-02-27T22:38:35.532Z,79.76
2023-02-27T22:41:14.574Z,80.25
2023-02-27T22:43:42.079Z,79.94
2023-02-27T22:46:09.485Z,80.05
2023-02-27T22:48:36.142Z,79.74
2023-02-27T22:51:05.952Z,79.43
2023-02-27T22:53:39.653Z,79.31
2023-02-27T22:56:10.495Z,79.83
2023-02-27T22:58:39.017Z,79.80
2023-02-27T23:01:14.076Z,80.43
2023-02-27T23:03:40.889Z,80.41
2023-02-27T23:06:10.108Z,80.06
2023-02-27T23:08:37.155Z,80.04
2023-02-27T23:11:03.926Z,80.22
2023-02-27T23:13:32.033Z,79.91
2023-02-27T23:15:59.312Z,79.84
2023-02-27T23:18:25.679Z,79.53
2023-02-27T23:20:52.290Z,78.86
2023-02-27T23:23:18.716Z,79.61
2023-02-27T23:25:45.108Z,79.91
2023-02-27T23:28:12.038Z,79.76
2023-02-27T23:30:38.443Z,79.57
2023-02-27T23:33:04.789Z,79.30
2023-02-27T23:35:31.351Z,79.20
2023-02-27T23:37:59.152Z,78.96
2023-02-27T23:40:27.015Z,78.23
2023-02-27T23:43:12.890Z,78.41
2023-02-27T23:45:39.850Z,78.01
2023-02-27T23:48:06.927Z,78.41
2023-02-27T23:50:39.233Z,77.34
2023-02-27T23:53:06.623Z,77.36
2023-02-27T23:55:35.361Z,77.34
2023-02-27T23:58:04.930Z,77.47
